Time;durP1;ratioP1;P1;durP2;ratioP2;P2;SDS_P1;SDS_P2;PMS_P1;PMS_P2;Temp;Humidity;BMP_temperature;BMP_pressure;BME280_temperature;BME280_humidity;BME280_pressure;Samples;Min_cycle;Max_cycle;Signal;HPM_P1;HPM_P2
2022/03/26 00:00:23;;;;;;;32.80;14.18;;;;;;;7.78;nan;102792.38;4969610;28;20030;-47
2022/03/26 00:02:51;;;;;;;37.03;15.00;;;;;;;7.74;nan;102799.09;4969394;28;20081;-50
2022/03/26 00:05:17;;;;;;;28.90;13.50;;;;;;;7.69;nan;102794.25;4967660;28;20121;-50
2022/03/26 00:07:43;;;;;;;29.77;13.98;;;;;;;7.66;nan;102796.47;4968718;28;20085;-49
2022/03/26 00:10:09;;;;;;;29.65;13.95;;;;;;;7.62;nan;102793.34;4967271;28;20046;-47
2022/03/26 00:12:35;;;;;;;28.60;13.50;;;;;;;7.57;nan;102791.22;4973411;28;20033;-48
2022/03/26 00:15:04;;;;;;;28.90;12.98;;;;;;;7.53;nan;102789.88;4966621;28;20024;-50
2022/03/26 00:17:30;;;;;;;29.77;13.88;;;;;;;7.51;nan;102793.72;4970869;28;20083;-48
2022/03/26 00:19:56;;;;;;;29.48;13.50;;;;;;;7.47;nan;102784.44;4972261;28;20444;-50
2022/03/26 00:22:21;;;;;;;31.60;14.77;;;;;;;7.43;nan;102775.97;4972502;28;20026;-51
2022/03/26 00:24:47;;;;;;;30.55;14.00;;;;;;;7.39;nan;102777.34;4972517;28;20029;-50
2022/03/26 00:27:12;;;;;;;29.80;13.95;;;;;;;7.36;nan;102774.16;4970061;28;20115;-52
2022/03/26 00:29:38;;;;;;;37.10;14.75;;;;;;;7.33;nan;102770.03;4971653;28;20090;-47
2022/03/26 00:32:06;;;;;;;29.55;14.05;;;;;;;7.31;nan;102771.22;4970725;28;20491;-51
2022/03/26 00:34:32;;;;;;;33.78;14.25;;;;;;;7.28;nan;102775.06;4969857;28;20046;-49
2022/03/26 00:36:58;;;;;;;31.65;14.52;;;;;;;7.25;nan;102765.59;4963632;28;20031;-48
2022/03/26 00:39:23;;;;;;;32.65;14.73;;;;;;;7.23;nan;102761.44;4970897;28;20420;-48
2022/03/26 00:41:49;;;;;;;36.20;15.20;;;;;;;7.19;nan;102757.47;4968951;28;20031;-50
2022/03/26 00:44:16;;;;;;;30.50;14.93;;;;;;;7.15;nan;102759.63;4967848;28;20038;-51
2022/03/26 00:46:45;;;;;;;28.75;14.40;;;;;;;7.10;nan;102756.69;4971098;28;20027;-48
2022/03/26 00:49:12;;;;;;;32.15;14.35;;;;;;;7.05;nan;102758.22;4963505;28;20041;-49
2022/03/26 00:51:37;;;;;;;30.45;13.85;;;;;;;6.98;nan;102748.25;4962417;28;20123;-49
2022/03/26 00:54:03;;;;;;;32.38;14.48;;;;;;;6.92;nan;102748.94;4967468;28;20105;-50
2022/03/26 00:56:29;;;;;;;33.35;13.38;;;;;;;6.87;nan;102747.81;4971626;28;20461;-50
2022/03/26 00:58:54;;;;;;;32.58;14.38;;;;;;;6.82;nan;102736.84;4967555;28;20049;-48
2022/03/26 01:01:20;;;;;;;33.88;15.40;;;;;;;6.81;nan;102740.50;4969917;28;20077;-49
2022/03/26 01:03:46;;;;;;;31.23;13.80;;;;;;;6.79;nan;102743.34;4964521;28;20460;-47
2022/03/26 01:06:14;;;;;;;31.55;15.38;;;;;;;6.79;nan;102738.03;4969579;28;20547;-50
2022/03/26 01:08:39;;;;;;;32.70;13.70;;;;;;;6.79;nan;102735.34;4969866;28;20396;-50
2022/03/26 01:11:05;;;;;;;31.65;13.40;;;;;;;6.77;nan;102729.38;4966790;28;20038;-51
2022/03/26 01:13:32;;;;;;;32.08;14.05;;;;;;;6.76;nan;102729.56;4971278;28;20031;-47
2022/03/26 01:15:57;;;;;;;30.75;14.48;;;;;;;6.78;nan;102719.56;4969835;28;20034;-51
2022/03/26 01:18:23;;;;;;;31.55;13.93;;;;;;;6.81;nan;102717.38;4969501;28;20081;-50
2022/03/26 01:20:49;;;;;;;37.15;16.23;;;;;;;6.87;nan;102726.50;4963875;28;20027;-53
2022/03/26 01:23:19;;;;;;;34.88;15.38;;;;;;;6.92;nan;102724.16;4968834;28;20061;-47
2022/03/26 01:25:44;;;;;;;35.63;15.15;;;;;;;6.96;nan;102723.59;4961987;28;20023;-49
2022/03/26 01:28:10;;;;;;;35.55;15.68;;;;;;;7.03;nan;102720.25;4967052;28;20030;-49
2022/03/26 01:30:36;;;;;;;40.20;16.17;;;;;;;7.06;nan;102717.25;4965858;28;20033;-50
2022/03/26 01:33:01;;;;;;;37.83;16.15;;;;;;;7.08;nan;102715.22;4963268;28;20042;-51
2022/03/26 01:35:27;;;;;;;41.90;16.65;;;;;;;7.11;nan;102709.53;4968428;28;20031;-48
2022/03/26 01:37:52;;;;;;;34.53;16.88;;;;;;;7.14;nan;102715.34;4963801;28;20374;-50
2022/03/26 01:40:18;;;;;;;40.53;16.63;;;;;;;7.19;nan;102706.81;4967533;28;20033;-52
2022/03/26 01:42:44;;;;;;;37.67;16.70;;;;;;;7.22;nan;102701.97;4967427;28;20563;-49
2022/03/26 01:45:14;;;;;;;38.92;17.65;;;;;;;7.25;nan;102701.59;4966638;28;20038;-49
2022/03/26 01:47:40;;;;;;;34.85;17.27;;;;;;;7.28;nan;102700.41;4964594;28;20184;-49
2022/03/26 01:50:07;;;;;;;42.28;17.30;;;;;;;7.33;nan;102702.53;4968816;28;20368;-50
2022/03/26 01:52:33;;;;;;;37.85;18.10;;;;;;;7.36;nan;102700.34;4968538;28;20125;-50
2022/03/26 01:55:00;;;;;;;44.03;18.00;;;;;;;7.40;nan;102704.31;4968283;28;20105;-47
2022/03/26 01:57:26;;;;;;;38.22;17.75;;;;;;;7.43;nan;102703.13;4965738;28;20034;-48
2022/03/26 01:59:52;;;;;;;50.78;19.52;;;;;;;7.44;nan;102697.63;4969246;28;20448;-51
2022/03/26 02:02:18;;;;;;;38.85;17.80;;;;;;;7.47;nan;102704.41;4969321;28;20031;-48
2022/03/26 02:04:43;;;;;;;41.42;19.67;;;;;;;7.48;nan;102698.06;4970842;28;20026;-47
2022/03/26 02:07:09;;;;;;;41.92;20.35;;;;;;;7.49;nan;102695.22;4964643;28;20155;-48
2022/03/26 02:09:37;;;;;;;41.65;19.40;;;;;;;7.50;nan;102704.88;4965743;28;20362;-49
2022/03/26 02:12:24;;;;;;;38.95;18.55;;;;;;;7.47;nan;102704.41;4960820;28;20027;-48
2022/03/26 02:14:50;;;;;;;36.78;16.80;;;;;;;7.52;nan;102700.19;4965556;28;20097;-51
2022/03/26 02:17:17;;;;;;;46.55;19.45;;;;;;;7.51;nan;102701.22;4963436;28;20034;-49
2022/03/26 02:19:56;;;;;;;40.70;19.98;;;;;;;7.49;nan;102700.56;4964257;28;20633;-51
2022/03/26 02:22:22;;;;;;;47.00;20.13;;;;;;;7.52;nan;102696.69;4964707;28;20045;-51
2022/03/26 02:24:49;;;;;;;38.60;19.20;;;;;;;7.52;nan;102700.19;4961513;28;20046;-50
2022/03/26 02:27:15;;;;;;;49.10;20.33;;;;;;;7.51;nan;102705.72;4960537;28;20033;-51
2022/03/26 02:29:41;;;;;;;43.67;19.42;;;;;;;7.50;nan;102704.88;4961391;28;20026;-52
2022/03/26 02:32:07;;;;;;;52.45;21.15;;;;;;;7.49;nan;102708.56;4962579;28;20493;-48
2022/03/26 02:34:32;;;;;;;39.25;18.67;;;;;;;7.50;nan;102706.72;4964495;28;20174;-48
2022/03/26 02:36:59;;;;;;;50.78;21.65;;;;;;;7.50;nan;102710.22;4960279;28;20019;-48
2022/03/26 02:39:25;;;;;;;45.30;20.60;;;;;;;7.50;nan;102704.88;4956871;28;20026;-49
2022/03/26 02:41:51;;;;;;;47.00;20.65;;;;;;;7.49;nan;102697.91;4964969;28;20081;-48
2022/03/26 02:44:17;;;;;;;40.90;19.60;;;;;;;7.50;nan;102707.56;4961148;28;20042;-47
2022/03/26 02:46:46;;;;;;;42.97;19.27;;;;;;;7.50;nan;102707.56;4967057;28;20023;-51
2022/03/26 02:49:15;;;;;;;42.38;19.75;;;;;;;7.47;nan;102705.25;4967028;28;20424;-49
2022/03/26 02:51:42;;;;;;;49.25;20.38;;;;;;;7.48;nan;102706.06;4965912;28;20035;-48
2022/03/26 02:54:18;;;;;;;45.35;20.38;;;;;;;7.47;nan;102699.09;4964934;28;20033;-50
2022/03/26 02:56:54;;;;;;;45.63;19.90;;;;;;;7.42;nan;102702.31;4959373;28;20054;-48
2022/03/26 02:59:23;;;;;;;41.40;18.92;;;;;;;7.45;nan;102698.44;4963529;28;20025;-49
2022/03/26 03:01:51;;;;;;;48.60;20.15;;;;;;;7.46;nan;102694.75;4966930;28;20092;-47
2022/03/26 03:04:16;;;;;;;46.28;21.25;;;;;;;7.45;nan;102693.09;4966724;28;20436;-47
2022/03/26 03:06:42;;;;;;;52.47;21.15;;;;;;;7.44;nan;102688.78;4963054;28;20027;-47
2022/03/26 03:09:08;;;;;;;40.58;18.92;;;;;;;7.42;nan;102686.31;4962508;28;20047;-48
2022/03/26 03:11:35;;;;;;;47.25;21.50;;;;;;;7.42;nan;102686.31;4960624;28;20029;-50
2022/03/26 03:14:02;;;;;;;46.15;20.95;;;;;;;7.41;nan;102684.66;4960523;28;20078;-51
2022/03/26 03:16:27;;;;;;;43.35;21.52;;;;;;;7.39;nan;102684.00;4963591;28;20493;-49
2022/03/26 03:18:53;;;;;;;45.53;20.35;;;;;;;7.39;nan;102681.31;4965750;28;20034;-48
2022/03/26 03:21:18;;;;;;;43.45;21.90;;;;;;;7.38;nan;102682.34;4967050;28;20500;-47
2022/03/26 03:23:44;;;;;;;54.75;22.10;;;;;;;7.39;nan;102678.66;4961878;28;20035;-48
2022/03/26 03:26:10;;;;;;;49.20;21.75;;;;;;;7.39;nan;102676.00;4958355;28;21344;-49
2022/03/26 03:28:37;;;;;;;46.30;20.30;;;;;;;7.36;nan;102672.84;4963352;28;20061;-50
2022/03/26 03:31:03;;;;;;;42.30;19.50;;;;;;;7.33;nan;102674.03;4965293;28;20035;-50
2022/03/26 03:33:29;;;;;;;44.22;20.88;;;;;;;7.32;nan;102676.88;4957478;28;20643;-49
2022/03/26 03:35:55;;;;;;;42.20;20.40;;;;;;;7.31;nan;102681.38;4963744;28;20027;-50
2022/03/26 03:38:20;;;;;;;49.53;21.23;;;;;;;7.31;nan;102675.22;4965194;28;20125;-51
2022/03/26 03:40:46;;;;;;;50.85;20.25;;;;;;;7.30;nan;102671.72;4958959;28;20054;-47
2022/03/26 03:43:11;;;;;;;51.33;20.48;;;;;;;7.28;nan;102669.25;4962824;28;20058;-48
2022/03/26 03:45:37;;;;;;;48.17;20.48;;;;;;;7.28;nan;102671.06;4965045;28;20058;-48
2022/03/26 03:48:03;;;;;;;45.92;21.08;;;;;;;7.26;nan;102660.59;4959744;28;20058;-49
2022/03/26 03:50:28;;;;;;;43.30;20.38;;;;;;;7.26;nan;102659.75;4961024;28;20298;-50
2022/03/26 03:52:54;;;;;;;43.22;21.27;;;;;;;7.25;nan;102652.78;4962347;28;20034;-49
2022/03/26 03:55:19;;;;;;;47.22;21.88;;;;;;;7.26;nan;102644.59;4962506;28;20234;-51
2022/03/26 03:57:45;;;;;;;46.03;20.35;;;;;;;7.25;nan;102628.78;4959772;28;20054;-48
2022/03/26 04:00:13;;;;;;;41.88;21.52;;;;;;;7.26;nan;102638.44;4973594;23;20037;-45
2022/03/26 04:02:40;;;;;;;45.67;21.73;;;;;;;7.27;nan;102640.09;4933228;28;20090;-44
2022/03/26 04:05:09;;;;;;;46.53;20.45;;;;;;;7.27;nan;102640.09;4940401;28;20042;-46
2022/03/26 04:07:36;;;;;;;45.33;21.60;;;;;;;7.28;nan;102636.41;4937899;28;20149;-44
2022/03/26 04:10:03;;;;;;;43.72;21.77;;;;;;;7.27;nan;102632.09;4939720;28;20034;-45
2022/03/26 04:12:28;;;;;;;47.00;21.45;;;;;;;7.28;nan;102639.91;4934859;28;20047;-44
2022/03/26 04:14:54;;;;;;;48.28;21.27;;;;;;;7.30;nan;102639.72;4933703;28;20046;-46
2022/03/26 04:17:19;;;;;;;50.05;20.98;;;;;;;7.30;nan;102634.41;4935425;28;20035;-45
2022/03/26 04:19:45;;;;;;;45.97;20.25;;;;;;;7.31;nan;102630.72;4937109;28;20039;-45
2022/03/26 04:22:10;;;;;;;45.85;20.52;;;;;;;7.30;nan;102639.72;4935726;28;20032;-46
2022/03/26 04:24:36;;;;;;;44.25;21.10;;;;;;;7.30;nan;102638.91;4933943;28;20020;-44
2022/03/26 04:27:03;;;;;;;39.60;19.35;;;;;;;7.28;nan;102634.56;4931120;28;20037;-44
2022/03/26 04:29:29;;;;;;;46.78;20.98;;;;;;;7.28;nan;102631.91;4933091;28;20571;-45
2022/03/26 04:31:55;;;;;;;45.15;21.23;;;;;;;7.26;nan;102633.09;4938550;29;20035;-45
2022/03/26 04:34:20;;;;;;;46.92;20.70;;;;;;;7.27;nan;102624.09;4934670;28;20036;-45
2022/03/26 04:36:46;;;;;;;45.10;20.27;;;;;;;7.28;nan;102631.91;4939051;28;20051;-46
2022/03/26 04:39:12;;;;;;;45.97;20.98;;;;;;;7.28;nan;102631.09;4940322;28;20113;-45
2022/03/26 04:41:37;;;;;;;43.55;20.20;;;;;;;7.28;nan;102637.25;4940998;28;20085;-45
2022/03/26 04:44:03;;;;;;;47.42;20.45;;;;;;;7.29;nan;102638.06;4938881;28;20438;-46
2022/03/26 04:46:28;;;;;;;46.92;21.17;;;;;;;7.30;nan;102629.06;4936598;28;20213;-45
2022/03/26 04:48:54;;;;;;;44.47;20.17;;;;;;;7.31;nan;102628.06;4941330;28;20027;-47
2022/03/26 04:51:19;;;;;;;40.78;19.95;;;;;;;7.33;nan;102622.53;4944266;28;20038;-45
2022/03/26 04:53:45;;;;;;;40.53;20.48;;;;;;;7.34;nan;102624.19;4939201;28;21582;-45
2022/03/26 04:56:11;;;;;;;39.83;18.13;;;;;;;7.34;nan;102627.69;4938288;28;20496;-45
2022/03/26 04:58:36;;;;;;;39.72;18.95;;;;;;;7.36;nan;102628.34;4936827;28;20118;-46
2022/03/26 05:01:02;;;;;;;43.05;19.67;;;;;;;7.35;nan;102621.34;4942765;28;20183;-45
2022/03/26 05:03:28;;;;;;;45.17;21.17;;;;;;;7.37;nan;102623.84;4939853;28;20372;-46
2022/03/26 05:05:53;;;;;;;41.53;18.27;;;;;;;7.38;nan;102617.50;4943259;28;20506;-45
2022/03/26 05:08:19;;;;;;;43.55;18.65;;;;;;;7.40;nan;102610.97;4942323;28;20090;-45
2022/03/26 05:10:45;;;;;;;40.80;20.10;;;;;;;7.42;nan;102605.47;4938535;28;20046;-45
2022/03/26 05:13:11;;;;;;;41.65;19.13;;;;;;;7.43;nan;102618.63;4934310;28;20051;-44
2022/03/26 05:15:36;;;;;;;39.05;18.08;;;;;;;7.47;nan;102621.75;4935316;28;20026;-44
2022/03/26 05:18:03;;;;;;;39.17;17.73;;;;;;;7.46;nan;102609.41;4935905;28;20039;-45
2022/03/26 05:20:29;;;;;;;41.17;19.92;;;;;;;7.49;nan;102615.22;4943309;28;20448;-45
2022/03/26 05:22:54;;;;;;;40.15;19.20;;;;;;;7.51;nan;102621.19;4937572;28;20109;-46
2022/03/26 05:25:20;;;;;;;36.50;17.25;;;;;;;7.54;nan;102623.50;4940493;28;20501;-45
2022/03/26 05:27:52;;;;;;;42.35;19.42;;;;;;;7.54;nan;102623.50;4937195;29;20424;-46
2022/03/26 05:30:18;;;;;;;42.65;18.70;;;;;;;7.58;nan;102623.97;4938835;28;20449;-46
2022/03/26 05:32:44;;;;;;;44.63;19.27;;;;;;;7.60;nan;102621.13;4935942;28;20023;-44
2022/03/26 05:35:16;;;;;;;39.30;18.90;;;;;;;7.63;nan;102618.91;4937470;29;20023;-46
2022/03/26 05:37:46;;;;;;;43.88;19.35;;;;;;;7.65;nan;102616.06;4938057;29;20046;-45
2022/03/26 05:40:16;;;;;;;40.33;19.77;;;;;;;7.71;nan;102620.66;4934384;28;20070;-45
2022/03/26 05:42:42;;;;;;;38.28;17.58;;;;;;;7.74;nan;102612.31;4933309;28;20023;-45
2022/03/26 05:45:09;;;;;;;40.10;18.38;;;;;;;7.79;nan;102620.56;4936837;29;20034;-45
2022/03/26 05:47:37;;;;;;;38.65;18.60;;;;;;;7.85;nan;102622.50;4934843;28;20035;-45
2022/03/26 05:50:05;;;;;;;37.88;18.85;;;;;;;7.91;nan;102621.78;4936626;28;20147;-46
2022/03/26 05:52:31;;;;;;;36.08;18.10;;;;;;;8.00;nan;102626.00;4938515;28;20054;-47
2022/03/26 05:54:56;;;;;;;39.60;19.92;;;;;;;8.10;nan;102626.56;4935239;28;20027;-45
2022/03/26 05:57:22;;;;;;;35.10;16.75;;;;;;;8.19;nan;102619.25;4935971;28;20044;-45
2022/03/26 05:59:48;;;;;;;36.80;19.10;;;;;;;8.28;nan;102609.31;4934172;28;20130;-46
2022/03/26 06:02:15;;;;;;;37.00;19.02;;;;;;;8.33;nan;102615.75;4936904;28;20050;-45
2022/03/26 06:04:44;;;;;;;40.50;18.27;;;;;;;8.33;nan;102606.91;4934847;28;20380;-45
2022/03/26 06:07:10;;;;;;;38.67;18.63;;;;;;;8.36;nan;102612.72;4936276;28;20028;-45
2022/03/26 06:09:37;;;;;;;44.50;18.63;;;;;;;8.38;nan;102617.88;4933698;28;20024;-45
2022/03/26 06:12:06;;;;;;;38.80;18.42;;;;;;;8.39;nan;102617.69;4938813;28;20035;-47
2022/03/26 06:14:33;;;;;;;33.00;17.25;;;;;;;8.42;nan;102614.63;4934753;28;20078;-45
2022/03/26 06:16:58;;;;;;;39.95;18.83;;;;;;;8.47;nan;102601.56;4933906;28;20066;-45
2022/03/26 06:19:26;;;;;;;36.97;18.20;;;;;;;8.54;nan;102612.31;4939740;28;20062;-46
2022/03/26 06:21:52;;;;;;;36.55;17.92;;;;;;;8.58;nan;102613.56;4934916;28;20032;-45
2022/03/26 06:24:17;;;;;;;35.17;17.73;;;;;;;8.63;nan;102613.84;4936529;28;20027;-45
2022/03/26 06:26:44;;;;;;;32.95;17.45;;;;;;;8.71;nan;102619.06;4933478;28;20544;-45
2022/03/26 06:29:12;;;;;;;35.33;18.38;;;;;;;8.76;nan;102610.47;4935168;28;20115;-45
2022/03/26 06:31:39;;;;;;;38.35;18.77;;;;;;;8.81;nan;102612.59;4937353;28;20073;-46
2022/03/26 06:34:05;;;;;;;36.75;17.52;;;;;;;8.87;nan;102627.84;4934280;28;20090;-46
2022/03/26 06:36:30;;;;;;;37.22;18.02;;;;;;;8.92;nan;102622.75;4936070;28;20032;-46
2022/03/26 06:38:57;;;;;;;36.28;17.17;;;;;;;8.98;nan;102622.84;4935071;28;20477;-46
2022/03/26 06:41:23;;;;;;;41.35;18.98;;;;;;;8.99;nan;102632.50;4937421;28;20037;-44
2022/03/26 06:43:48;;;;;;;36.00;19.13;;;;;;;9.01;nan;102637.66;4933568;28;20416;-45
2022/03/26 06:46:14;;;;;;;37.72;17.67;;;;;;;9.03;nan;102639.13;4933098;28;20023;-46
2022/03/26 06:48:40;;;;;;;36.95;17.58;;;;;;;9.05;nan;102636.25;4937033;28;20026;-45
2022/03/26 06:51:08;;;;;;;41.20;18.63;;;;;;;9.04;nan;102642.63;4936885;28;20341;-45
2022/03/26 06:53:35;;;;;;;34.95;17.20;;;;;;;9.05;nan;102638.94;4938244;28;20027;-45
2022/03/26 06:56:02;;;;;;;36.33;18.58;;;;;;;9.07;nan;102631.53;4939203;28;20563;-46
2022/03/26 06:58:27;;;;;;;33.47;16.70;;;;;;;9.09;nan;102632.19;4935994;28;20107;-45
2022/03/26 07:00:53;;;;;;;33.28;17.13;;;;;;;9.13;nan;102625.41;4936862;28;20035;-46
2022/03/26 07:03:18;;;;;;;32.97;17.38;;;;;;;9.14;nan;102628.91;4934572;28;20031;-46
2022/03/26 07:05:44;;;;;;;37.03;16.40;;;;;;;9.16;nan;102640.28;4933999;28;20029;-45
2022/03/26 07:08:10;;;;;;;35.85;17.75;;;;;;;9.19;nan;102640.72;4934334;28;20046;-45
2022/03/26 07:10:37;;;;;;;30.45;16.73;;;;;;;9.23;nan;102639.31;4934243;28;20047;-45
2022/03/26 07:13:03;;;;;;;33.90;16.20;;;;;;;9.29;nan;102648.38;4940327;28;20164;-45
2022/03/26 07:15:31;;;;;;;32.13;16.73;;;;;;;9.33;nan;102649.66;4934952;28;20027;-45
2022/03/26 07:17:57;;;;;;;31.15;16.60;;;;;;;9.39;nan;102652.41;4937708;28;20032;-45
2022/03/26 07:20:23;;;;;;;31.48;15.77;;;;;;;9.46;nan;102651.63;4933786;29;20114;-46
2022/03/26 07:22:49;;;;;;;34.33;16.38;;;;;;;9.51;nan;102660.69;4934553;28;20023;-45
2022/03/26 07:25:15;;;;;;;34.75;16.02;;;;;;;9.56;nan;102654.78;4936977;28;20027;-46
2022/03/26 07:27:40;;;;;;;33.42;16.08;;;;;;;9.61;nan;102658.53;4934530;28;20031;-45
2022/03/26 07:30:07;;;;;;;32.70;15.70;;;;;;;9.68;nan;102663.91;4934152;28;20038;-46
2022/03/26 07:32:33;;;;;;;32.85;16.02;;;;;;;9.73;nan;102658.81;4936333;28;20074;-46
2022/03/26 07:34:58;;;;;;;32.63;15.85;;;;;;;9.78;nan;102664.41;4932298;28;20449;-46
2022/03/26 07:37:24;;;;;;;32.20;15.65;;;;;;;9.82;nan;102668.34;4934553;29;20278;-46
2022/03/26 07:39:50;;;;;;;32.95;15.15;;;;;;;9.86;nan;102671.44;4933987;28;20039;-45
2022/03/26 07:42:16;;;;;;;31.35;14.55;;;;;;;9.88;nan;102664.91;4934126;28;20031;-46
2022/03/26 07:44:42;;;;;;;33.80;15.32;;;;;;;9.96;nan;102672.75;4938314;28;20046;-47
2022/03/26 07:47:08;;;;;;;25.23;14.13;;;;;;;10.03;nan;102678.16;4936571;28;20035;-45
2022/03/26 07:49:34;;;;;;;27.15;13.55;;;;;;;9.99;nan;102672.38;4936561;29;20075;-46
2022/03/26 07:52:00;;;;;;;26.08;13.70;;;;;;;10.00;nan;102673.19;4936093;28;20362;-45
2022/03/26 07:54:26;;;;;;;23.73;13.65;;;;;;;10.03;nan;102682.69;4937334;29;20452;-45
2022/03/26 07:56:51;;;;;;;25.70;14.32;;;;;;;10.05;nan;102683.31;4933997;28;20056;-46
2022/03/26 07:59:17;;;;;;;26.48;12.73;;;;;;;10.12;nan;102686.88;4934725;28;20024;-47
2022/03/26 08:01:43;;;;;;;26.42;13.45;;;;;;;10.12;nan;102679.66;4931888;29;20034;-45
2022/03/26 08:04:09;;;;;;;26.50;13.18;;;;;;;10.12;nan;102686.88;4934165;28;20028;-47
2022/03/26 08:06:34;;;;;;;27.10;14.30;;;;;;;10.14;nan;102679.47;4935922;28;20039;-45
2022/03/26 08:09:00;;;;;;;25.02;13.63;;;;;;;10.18;nan;102692.25;4934825;28;20027;-46
2022/03/26 08:11:25;;;;;;;30.85;14.30;;;;;;;10.22;nan;102692.72;4937329;28;20036;-45
2022/03/26 08:13:51;;;;;;;27.17;14.40;;;;;;;10.24;nan;102696.03;4936806;29;20031;-45
2022/03/26 08:16:16;;;;;;;23.27;13.27;;;;;;;10.28;nan;102689.25;4935401;28;20034;-46
2022/03/26 08:18:44;;;;;;;28.73;14.80;;;;;;;10.30;nan;102697.91;4937339;29;20035;-46
2022/03/26 08:21:10;;;;;;;31.95;15.70;;;;;;;10.32;nan;102695.88;4939133;28;20414;-46
2022/03/26 08:23:36;;;;;;;33.45;16.33;;;;;;;10.28;nan;102698.13;4942607;28;20624;-45
2022/03/26 08:26:20;;;;;;;32.55;15.32;;;;;;;10.24;nan;102698.72;4941579;28;20122;-46
2022/03/26 08:28:46;;;;;;;34.10;15.95;;;;;;;10.23;nan;102686.31;4941363;28;20027;-46
2022/03/26 08:31:13;;;;;;;32.13;15.25;;;;;;;10.25;nan;102686.97;4935552;28;20129;-48
2022/03/26 08:33:39;;;;;;;35.25;16.33;;;;;;;10.25;nan;102689.66;4936586;28;20034;-47
2022/03/26 08:36:05;;;;;;;33.67;16.33;;;;;;;10.29;nan;102698.94;4940055;28;20115;-46
2022/03/26 08:38:31;;;;;;;30.13;15.52;;;;;;;10.35;nan;102695.47;4937604;28;20090;-45
2022/03/26 08:40:56;;;;;;;29.60;15.27;;;;;;;10.41;nan;102700.03;4938965;28;20120;-45
2022/03/26 08:43:22;;;;;;;35.30;15.75;;;;;;;10.41;nan;102702.72;4938232;28;20027;-46
2022/03/26 08:45:48;;;;;;;34.85;16.27;;;;;;;10.39;nan;102696.72;4938698;28;20082;-47
2022/03/26 08:48:15;;;;;;;36.40;17.83;;;;;;;10.37;nan;102701.44;4936534;28;20035;-45
2022/03/26 08:50:42;;;;;;;39.55;16.20;;;;;;;10.37;nan;102704.13;4934629;28;20035;-45
2022/03/26 08:53:08;;;;;;;31.85;15.73;;;;;;;10.40;nan;102705.56;4944215;28;20043;-46
2022/03/26 08:55:34;;;;;;;30.73;13.95;;;;;;;10.41;nan;102710.75;4935475;29;20389;-46
2022/03/26 08:57:59;;;;;;;25.88;14.38;;;;;;;10.42;nan;102712.41;4936659;28;20134;-46
2022/03/26 09:00:26;;;;;;;26.35;13.93;;;;;;;10.39;nan;102711.97;4939532;28;20528;-45
2022/03/26 09:02:53;;;;;;;25.50;14.13;;;;;;;10.37;nan;102719.38;4933466;28;20086;-45
2022/03/26 09:05:18;;;;;;;28.38;13.98;;;;;;;10.32;nan;102714.63;4938896;28;20036;-46
2022/03/26 09:07:44;;;;;;;26.73;14.45;;;;;;;10.33;nan;102712.75;4938894;28;20042;-45
2022/03/26 09:10:10;;;;;;;28.00;14.05;;;;;;;10.36;nan;102715.88;4936215;28;20454;-47
2022/03/26 09:12:35;;;;;;;28.27;14.82;;;;;;;10.41;nan;102710.75;4930649;28;20039;-45
2022/03/26 09:15:02;;;;;;;31.02;14.27;;;;;;;10.49;nan;102712.44;4936662;28;20423;-46
2022/03/26 09:17:27;;;;;;;26.60;14.18;;;;;;;10.53;nan;102719.03;4937173;28;20055;-46
2022/03/26 09:19:53;;;;;;;28.13;13.52;;;;;;;10.56;nan;102718.63;4936112;28;20134;-45
2022/03/26 09:22:18;;;;;;;27.75;14.00;;;;;;;10.59;nan;102727.13;4936184;28;20585;-46
2022/03/26 09:24:44;;;;;;;24.70;13.10;;;;;;;10.58;nan;102728.13;4938177;29;20027;-46
2022/03/26 09:27:10;;;;;;;25.50;12.80;;;;;;;10.58;nan;102722.78;4936474;28;20114;-45
2022/03/26 09:29:36;;;;;;;25.48;13.18;;;;;;;10.57;nan;102731.84;4939952;29;20027;-47
2022/03/26 09:32:02;;;;;;;22.35;13.48;;;;;;;10.58;nan;102730.81;4937291;29;20513;-45
2022/03/26 09:34:28;;;;;;;23.55;13.35;;;;;;;10.61;nan;102734.97;4936846;28;20042;-45
2022/03/26 09:36:54;;;;;;;23.75;12.93;;;;;;;10.56;nan;102732.88;4932685;29;20043;-47
2022/03/26 09:39:20;;;;;;;23.85;13.20;;;;;;;10.58;nan;102730.81;4936738;28;20049;-46
2022/03/26 09:41:49;;;;;;;22.08;11.50;;;;;;;10.56;nan;102740.91;4938385;28;20536;-46
2022/03/26 09:44:14;;;;;;;24.65;13.40;;;;;;;10.55;nan;102743.78;4937588;28;20034;-46
2022/03/26 09:46:40;;;;;;;26.15;13.35;;;;;;;10.53;nan;102738.63;4937666;28;20396;-46
2022/03/26 09:49:09;;;;;;;23.75;12.52;;;;;;;10.54;nan;102739.44;4935570;28;20042;-46
2022/03/26 09:51:35;;;;;;;24.73;14.05;;;;;;;10.53;nan;102732.44;4936376;28;20035;-46
2022/03/26 09:54:00;;;;;;;21.25;12.02;;;;;;;10.52;nan;102739.66;4938350;28;20699;-47
2022/03/26 09:56:28;;;;;;;24.55;13.50;;;;;;;10.51;nan;102738.00;4938626;28;20023;-47
2022/03/26 09:58:54;;;;;;;23.42;12.70;;;;;;;10.54;nan;102750.19;4936829;28;20035;-45
2022/03/26 10:01:20;;;;;;;20.23;11.60;;;;;;;10.56;nan;102743.59;4935997;28;20493;-46
2022/03/26 10:04:08;;;;;;;23.35;12.02;;;;;;;10.56;nan;102743.59;4930681;28;20062;-47
2022/03/26 10:06:34;;;;;;;22.83;12.15;;;;;;;10.64;nan;102750.66;4937247;28;20098;-45
2022/03/26 10:08:59;;;;;;;18.75;10.70;;;;;;;10.63;nan;102753.53;4937189;29;20169;-46
2022/03/26 10:11:25;;;;;;;21.13;11.02;;;;;;;10.59;nan;102753.94;4935068;28;20031;-46
2022/03/26 10:13:52;;;;;;;20.77;11.20;;;;;;;10.62;nan;102749.19;4939731;28;20041;-47
2022/03/26 10:16:18;;;;;;;19.70;10.63;;;;;;;10.61;nan;102759.09;4939627;28;20522;-46
2022/03/26 10:18:47;;;;;;;21.65;10.98;;;;;;;10.59;nan;102753.94;4935117;29;20035;-46
2022/03/26 10:21:15;;;;;;;20.23;10.73;;;;;;;10.63;nan;102756.22;4936830;28;20040;-45
2022/03/26 10:23:45;;;;;;;26.33;12.48;;;;;;;10.63;nan;102750.84;4934170;29;20114;-47
2022/03/26 10:26:13;;;;;;;18.95;10.15;;;;;;;10.64;nan;102749.81;4935232;28;20126;-46
2022/03/26 10:28:43;;;;;;;21.67;10.45;;;;;;;10.67;nan;102746.75;4936098;28;20027;-46
2022/03/26 10:34:08;;;;;;;16.77;9.32;;;;;;;10.48;nan;102749.13;4932490;28;20059;-46
2022/03/26 10:36:42;;;;;;;18.85;9.73;;;;;;;10.50;nan;102746.25;4932885;28;20039;-46
2022/03/26 10:39:15;;;;;;;15.98;8.43;;;;;;;10.50;nan;102747.06;4934845;28;20043;-45
2022/03/26 10:41:40;;;;;;;15.95;8.57;;;;;;;10.56;nan;102743.59;4936556;28;20063;-46
2022/03/26 10:44:13;;;;;;;13.68;7.35;;;;;;;10.58;nan;102746.06;4933473;28;20475;-47
2022/03/26 10:46:44;;;;;;;18.77;9.20;;;;;;;10.56;nan;102753.47;4932359;28;20099;-50
2022/03/26 10:49:10;;;;;;;23.05;9.15;;;;;;;10.58;nan;102756.78;4932917;28;20030;-46
2022/03/26 10:51:36;;;;;;;16.05;8.75;;;;;;;10.55;nan;102749.97;4935380;28;20035;-46
2022/03/26 10:54:12;;;;;;;16.70;8.43;;;;;;;10.52;nan;102746.88;4931320;29;20038;-47
2022/03/26 10:56:38;;;;;;;16.50;9.27;;;;;;;10.59;nan;102745.91;4932875;29;20026;-48
2022/03/26 10:59:05;;;;;;;19.48;9.25;;;;;;;10.63;nan;102750.84;4932007;29;20162;-47
2022/03/26 11:01:31;;;;;;;15.77;8.38;;;;;;;10.65;nan;102741.56;4929525;29;20029;-46
2022/03/26 11:03:57;;;;;;;15.45;8.85;;;;;;;10.68;nan;102737.66;4935181;29;20035;-47
2022/03/26 11:06:27;;;;;;;16.95;8.30;;;;;;;10.67;nan;102733.34;4937922;28;20024;-47
2022/03/26 11:09:00;;;;;;;15.07;7.35;;;;;;;10.66;nan;102737.03;4938581;28;20028;-46
2022/03/26 11:11:30;;;;;;;14.50;8.07;;;;;;;10.67;nan;102752.09;4940977;28;20020;-47
2022/03/26 11:14:10;;;;;;;16.77;7.68;;;;;;;10.70;nan;102746.34;4935325;28;20027;-47
2022/03/26 11:16:54;;;;;;;17.15;8.48;;;;;;;10.78;nan;102746.19;4934631;28;20471;-49
2022/03/26 11:19:33;;;;;;;17.10;8.27;;;;;;;10.80;nan;102744.13;4939847;29;20035;-46
2022/03/26 11:22:12;;;;;;;14.70;7.93;;;;;;;10.85;nan;102745.16;4935197;28;20035;-47
2022/03/26 11:24:41;;;;;;;15.07;8.20;;;;;;;10.93;nan;102746.81;4930172;28;20036;-47
2022/03/26 11:27:28;;;;;;;15.23;7.63;;;;;;;11.03;nan;102738.41;4937123;28;20035;-45
2022/03/26 11:30:03;;;;;;;11.80;6.75;;;;;;;11.10;nan;102734.69;4934804;28;20412;-46
2022/03/26 11:32:45;;;;;;;11.68;7.63;;;;;;;11.11;nan;102741.72;4937568;28;20026;-45